sensor_id;sensor_type;location;lat;lon;timestamp;temperature;humidity
74869;DHT22;63419;42.262;12.210;2022-10-16T00:01:44;14.80;99.90
74869;DHT22;63419;42.262;12.210;2022-10-16T00:04:11;14.90;99.90
74869;DHT22;63419;42.262;12.210;2022-10-16T00:06:39;14.90;99.90
74869;DHT22;63419;42.262;12.210;2022-10-16T00:09:07;14.80;99.90
74869;DHT22;63419;42.262;12.210;2022-10-16T00:11:38;14.70;99.90
74869;DHT22;63419;42.262;12.210;2022-10-16T00:14:10;14.40;99.90
74869;DHT22;63419;42.262;12.210;2022-10-16T00:16:40;14.30;99.90
74869;DHT22;63419;42.262;12.210;2022-10-16T00:19:09;14.20;99.90
74869;DHT22;63419;42.262;12.210;2022-10-16T00:21:39;14.00;99.90
74869;DHT22;63419;42.262;12.210;2022-10-16T00:24:08;13.90;99.90
74869;DHT22;63419;42.262;12.210;2022-10-16T00:26:37;13.90;99.90
74869;DHT22;63419;42.262;12.210;2022-10-16T00:29:06;13.80;99.90
74869;DHT22;63419;42.262;12.210;2022-10-16T00:31:34;13.60;99.90
74869;DHT22;63419;42.262;12.210;2022-10-16T00:34:02;13.50;99.90
74869;DHT22;63419;42.262;12.210;2022-10-16T00:36:29;13.40;99.90
74869;DHT22;63419;42.262;12.210;2022-10-16T00:39:00;13.50;99.90
74869;DHT22;63419;42.262;12.210;2022-10-16T00:41:29;13.40;99.90
74869;DHT22;63419;42.262;12.210;2022-10-16T00:44:03;13.50;99.90
74869;DHT22;63419;42.262;12.210;2022-10-16T00:46:50;13.60;99.90
74869;DHT22;63419;42.262;12.210;2022-10-16T00:49:19;13.70;99.90
74869;DHT22;63419;42.262;12.210;2022-10-16T00:51:52;13.80;99.90
74869;DHT22;63419;42.262;12.210;2022-10-16T00:54:27;13.90;99.90
74869;DHT22;63419;42.262;12.210;2022-10-16T00:56:59;14.10;99.90
74869;DHT22;63419;42.262;12.210;2022-10-16T00:59:37;14.30;99.90
74869;DHT22;63419;42.262;12.210;2022-10-16T01:02:09;14.40;99.90
74869;DHT22;63419;42.262;12.210;2022-10-16T01:04:45;14.40;99.90
74869;DHT22;63419;42.262;12.210;2022-10-16T01:21:22;14.50;99.90
74869;DHT22;63419;42.262;12.210;2022-10-16T01:24:37;13.90;99.90
74869;DHT22;63419;42.262;12.210;2022-10-16T01:27:25;13.40;99.90
74869;DHT22;63419;42.262;12.210;2022-10-16T01:30:21;13.40;99.90
74869;DHT22;63419;42.262;12.210;2022-10-16T01:33:02;13.50;99.90
74869;DHT22;63419;42.262;12.210;2022-10-16T01:35:53;13.40;99.90
74869;DHT22;63419;42.262;12.210;2022-10-16T01:38:35;13.40;99.90
74869;DHT22;63419;42.262;12.210;2022-10-16T01:41:24;13.70;99.90
74869;DHT22;63419;42.262;12.210;2022-10-16T01:46:31;13.80;99.90
74869;DHT22;63419;42.262;12.210;2022-10-16T01:49:02;13.80;99.90
74869;DHT22;63419;42.262;12.210;2022-10-16T01:51:31;13.90;99.90
74869;DHT22;63419;42.262;12.210;2022-10-16T01:54:01;14.00;99.90
74869;DHT22;63419;42.262;12.210;2022-10-16T01:56:29;14.00;99.90
74869;DHT22;63419;42.262;12.210;2022-10-16T01:59:12;14.20;99.90
74869;DHT22;63419;42.262;12.210;2022-10-16T02:01:48;14.30;99.90
74869;DHT22;63419;42.262;12.210;2022-10-16T02:04:27;14.40;99.90
74869;DHT22;63419;42.262;12.210;2022-10-16T02:06:59;14.40;99.90
74869;DHT22;63419;42.262;12.210;2022-10-16T02:09:33;14.50;99.90
74869;DHT22;63419;42.262;12.210;2022-10-16T02:12:30;14.60;99.90
74869;DHT22;63419;42.262;12.210;2022-10-16T02:15:01;14.70;99.90
74869;DHT22;63419;42.262;12.210;2022-10-16T02:17:29;14.60;99.90
74869;DHT22;63419;42.262;12.210;2022-10-16T02:20:00;14.70;99.90
74869;DHT22;63419;42.262;12.210;2022-10-16T02:22:40;14.20;99.90
74869;DHT22;63419;42.262;12.210;2022-10-16T02:25:41;14.30;99.90
74869;DHT22;63419;42.262;12.210;2022-10-16T02:28:36;14.40;99.90
74869;DHT22;63419;42.262;12.210;2022-10-16T02:31:20;14.50;99.90
74869;DHT22;63419;42.262;12.210;2022-10-16T02:33:59;14.70;99.90
74869;DHT22;63419;42.262;12.210;2022-10-16T02:36:34;14.80;99.90
74869;DHT22;63419;42.262;12.210;2022-10-16T02:39:04;14.90;99.90
74869;DHT22;63419;42.262;12.210;2022-10-16T02:41:36;15.00;99.90
74869;DHT22;63419;42.262;12.210;2022-10-16T02:44:04;15.00;99.90
74869;DHT22;63419;42.262;12.210;2022-10-16T02:46:35;14.90;99.90
74869;DHT22;63419;42.262;12.210;2022-10-16T02:49:07;14.70;99.90
74869;DHT22;63419;42.262;12.210;2022-10-16T02:51:38;14.60;99.90
74869;DHT22;63419;42.262;12.210;2022-10-16T02:54:08;14.70;99.90
74869;DHT22;63419;42.262;12.210;2022-10-16T02:56:39;14.80;99.90
74869;DHT22;63419;42.262;12.210;2022-10-16T02:59:06;14.80;99.90
74869;DHT22;63419;42.262;12.210;2022-10-16T03:01:36;14.70;99.90
74869;DHT22;63419;42.262;12.210;2022-10-16T03:04:05;14.60;99.90
74869;DHT22;63419;42.262;12.210;2022-10-16T03:06:32;14.60;99.90
74869;DHT22;63419;42.262;12.210;2022-10-16T03:09:02;14.50;99.90
74869;DHT22;63419;42.262;12.210;2022-10-16T03:11:32;14.50;99.90
74869;DHT22;63419;42.262;12.210;2022-10-16T03:14:02;14.40;99.90
74869;DHT22;63419;42.262;12.210;2022-10-16T03:16:30;14.30;99.90
74869;DHT22;63419;42.262;12.210;2022-10-16T03:18:58;14.30;99.90
74869;DHT22;63419;42.262;12.210;2022-10-16T03:21:31;14.20;99.90
74869;DHT22;63419;42.262;12.210;2022-10-16T03:24:01;14.10;99.90
74869;DHT22;63419;42.262;12.210;2022-10-16T03:26:29;14.00;99.90
74869;DHT22;63419;42.262;12.210;2022-10-16T03:28:58;13.90;99.90
74869;DHT22;63419;42.262;12.210;2022-10-16T03:31:27;13.80;99.90
74869;DHT22;63419;42.262;12.210;2022-10-16T03:33:55;13.70;99.90
74869;DHT22;63419;42.262;12.210;2022-10-16T03:36:22;13.40;99.90
74869;DHT22;63419;42.262;12.210;2022-10-16T03:38:50;13.20;99.90
74869;DHT22;63419;42.262;12.210;2022-10-16T03:41:19;13.30;99.90
74869;DHT22;63419;42.262;12.210;2022-10-16T03:43:50;13.40;99.90
74869;DHT22;63419;42.262;12.210;2022-10-16T03:46:18;13.50;99.90
74869;DHT22;63419;42.262;12.210;2022-10-16T03:48:46;13.40;99.90
74869;DHT22;63419;42.262;12.210;2022-10-16T03:51:14;13.50;99.90
74869;DHT22;63419;42.262;12.210;2022-10-16T03:53:42;13.60;99.90
74869;DHT22;63419;42.262;12.210;2022-10-16T03:56:11;13.50;99.90
74869;DHT22;63419;42.262;12.210;2022-10-16T03:58:59;13.50;99.90
74869;DHT22;63419;42.262;12.210;2022-10-16T04:01:28;13.60;99.90
74869;DHT22;63419;42.262;12.210;2022-10-16T04:03:55;13.70;99.90
74869;DHT22;63419;42.262;12.210;2022-10-16T04:06:24;13.70;99.90
74869;DHT22;63419;42.262;12.210;2022-10-16T04:08:52;13.70;99.90
74869;DHT22;63419;42.262;12.210;2022-10-16T04:11:22;13.80;99.90
74869;DHT22;63419;42.262;12.210;2022-10-16T04:13:50;13.80;99.90
74869;DHT22;63419;42.262;12.210;2022-10-16T04:16:18;13.80;99.90
74869;DHT22;63419;42.262;12.210;2022-10-16T04:18:45;13.70;99.90
74869;DHT22;63419;42.262;12.210;2022-10-16T04:21:15;13.70;99.90
74869;DHT22;63419;42.262;12.210;2022-10-16T04:23:43;13.70;99.90
74869;DHT22;63419;42.262;12.210;2022-10-16T04:26:13;13.70;99.90
74869;DHT22;63419;42.262;12.210;2022-10-16T04:28:50;13.60;99.90
74869;DHT22;63419;42.262;12.210;2022-10-16T04:31:19;13.60;99.90
74869;DHT22;63419;42.262;12.210;2022-10-16T04:33:48;13.60;99.90
74869;DHT22;63419;42.262;12.210;2022-10-16T04:36:22;13.50;99.90
74869;DHT22;63419;42.262;12.210;2022-10-16T04:38:55;13.30;99.90
74869;DHT22;63419;42.262;12.210;2022-10-16T04:41:23;13.30;99.90
74869;DHT22;63419;42.262;12.210;2022-10-16T04:43:55;13.30;99.90
74869;DHT22;63419;42.262;12.210;2022-10-16T04:46:22;13.30;99.90
74869;DHT22;63419;42.262;12.210;2022-10-16T04:48:50;13.20;99.90
74869;DHT22;63419;42.262;12.210;2022-10-16T04:51:19;13.30;99.90
74869;DHT22;63419;42.262;12.210;2022-10-16T04:53:49;13.30;99.90
74869;DHT22;63419;42.262;12.210;2022-10-16T04:56:17;13.30;99.90
74869;DHT22;63419;42.262;12.210;2022-10-16T04:58:47;13.30;99.90
74869;DHT22;63419;42.262;12.210;2022-10-16T05:01:16;13.20;99.90
74869;DHT22;63419;42.262;12.210;2022-10-16T05:03:44;13.20;99.90
74869;DHT22;63419;42.262;12.210;2022-10-16T05:06:13;13.10;99.90
74869;DHT22;63419;42.262;12.210;2022-10-16T05:08:43;13.00;99.90
74869;DHT22;63419;42.262;12.210;2022-10-16T05:11:11;13.00;99.90
74869;DHT22;63419;42.262;12.210;2022-10-16T05:13:38;13.00;99.90
74869;DHT22;63419;42.262;12.210;2022-10-16T05:16:11;13.00;99.90
74869;DHT22;63419;42.262;12.210;2022-10-16T05:18:40;12.90;99.90
74869;DHT22;63419;42.262;12.210;2022-10-16T05:21:12;12.90;99.90
74869;DHT22;63419;42.262;12.210;2022-10-16T05:23:44;12.80;99.90
74869;DHT22;63419;42.262;12.210;2022-10-16T05:26:12;12.80;99.90
74869;DHT22;63419;42.262;12.210;2022-10-16T05:28:41;12.70;99.90
74869;DHT22;63419;42.262;12.210;2022-10-16T05:31:08;12.70;99.90
74869;DHT22;63419;42.262;12.210;2022-10-16T05:33:39;12.70;99.90
74869;DHT22;63419;42.262;12.210;2022-10-16T05:36:10;12.80;99.90
74869;DHT22;63419;42.262;12.210;2022-10-16T05:38:38;12.90;99.90
74869;DHT22;63419;42.262;12.210;2022-10-16T05:41:07;13.00;99.90
74869;DHT22;63419;42.262;12.210;2022-10-16T05:43:38;13.20;99.90
74869;DHT22;63419;42.262;12.210;2022-10-16T05:46:06;12.10;99.90
74869;DHT22;63419;42.262;12.210;2022-10-16T05:48:34;11.90;99.90
74869;DHT22;63419;42.262;12.210;2022-10-16T05:51:06;12.00;99.90
74869;DHT22;63419;42.262;12.210;2022-10-16T05:53:38;12.10;99.90
74869;DHT22;63419;42.262;12.210;2022-10-16T05:56:11;12.40;99.90
74869;DHT22;63419;42.262;12.210;2022-10-16T05:58:42;12.50;99.90
74869;DHT22;63419;42.262;12.210;2022-10-16T06:01:14;11.60;99.90
74869;DHT22;63419;42.262;12.210;2022-10-16T06:03:44;11.70;99.90
74869;DHT22;63419;42.262;12.210;2022-10-16T06:06:14;11.80;99.90
74869;DHT22;63419;42.262;12.210;2022-10-16T06:08:44;12.00;99.90
74869;DHT22;63419;42.262;12.210;2022-10-16T06:11:18;12.30;99.90
74869;DHT22;63419;42.262;12.210;2022-10-16T06:13:54;12.50;99.90
74869;DHT22;63419;42.262;12.210;2022-10-16T06:16:32;12.10;99.90
74869;DHT22;63419;42.262;12.210;2022-10-16T06:19:11;12.20;99.90
74869;DHT22;63419;42.262;12.210;2022-10-16T06:21:40;12.50;99.90
74869;DHT22;63419;42.262;12.210;2022-10-16T06:24:11;12.70;99.90
74869;DHT22;63419;42.262;12.210;2022-10-16T06:26:39;13.00;99.90
74869;DHT22;63419;42.262;12.210;2022-10-16T06:29:09;13.10;99.90
74869;DHT22;63419;42.262;12.210;2022-10-16T06:31:38;12.80;99.90
74869;DHT22;63419;42.262;12.210;2022-10-16T06:34:05;12.80;99.90
74869;DHT22;63419;42.262;12.210;2022-10-16T06:36:37;13.00;99.90
74869;DHT22;63419;42.262;12.210;2022-10-16T06:39:07;13.30;99.90
74869;DHT22;63419;42.262;12.210;2022-10-16T06:41:37;13.50;99.90
74869;DHT22;63419;42.262;12.210;2022-10-16T06:44:09;13.70;99.90
74869;DHT22;63419;42.262;12.210;2022-10-16T06:46:39;13.90;99.90
74869;DHT22;63419;42.262;12.210;2022-10-16T06:49:09;13.90;99.90
74869;DHT22;63419;42.262;12.210;2022-10-16T06:51:37;14.10;99.90
74869;DHT22;63419;42.262;12.210;2022-10-16T06:54:10;14.30;99.90
74869;DHT22;63419;42.262;12.210;2022-10-16T06:56:37;14.50;99.90
74869;DHT22;63419;42.262;12.210;2022-10-16T06:59:22;14.60;99.90
74869;DHT22;63419;42.262;12.210;2022-10-16T07:01:52;14.80;99.90
74869;DHT22;63419;42.262;12.210;2022-10-16T07:04:20;14.80;99.90
74869;DHT22;63419;42.262;12.210;2022-10-16T07:06:50;14.70;99.90
74869;DHT22;63419;42.262;12.210;2022-10-16T07:09:23;14.70;99.90
74869;DHT22;63419;42.262;12.210;2022-10-16T07:11:51;14.90;99.90
74869;DHT22;63419;42.262;12.210;2022-10-16T07:14:21;15.00;99.90
74869;DHT22;63419;42.262;12.210;2022-10-16T07:16:49;15.20;99.90
74869;DHT22;63419;42.262;12.210;2022-10-16T07:19:19;15.30;99.90
74869;DHT22;63419;42.262;12.210;2022-10-16T07:21:47;15.30;99.90
74869;DHT22;63419;42.262;12.210;2022-10-16T07:24:19;15.40;99.90
74869;DHT22;63419;42.262;12.210;2022-10-16T07:26:48;15.40;99.90
74869;DHT22;63419;42.262;12.210;2022-10-16T07:29:21;15.60;99.90
74869;DHT22;63419;42.262;12.210;2022-10-16T07:31:49;15.70;99.90
74869;DHT22;63419;42.262;12.210;2022-10-16T07:34:21;15.70;99.90
74869;DHT22;63419;42.262;12.210;2022-10-16T07:36:50;15.70;99.90
74869;DHT22;63419;42.262;12.210;2022-10-16T07:39:18;15.90;99.90
74869;DHT22;63419;42.262;12.210;2022-10-16T07:41:46;16.00;99.90
74869;DHT22;63419;42.262;12.210;2022-10-16T07:44:16;16.10;99.90
74869;DHT22;63419;42.262;12.210;2022-10-16T07:46:46;16.30;99.90
74869;DHT22;63419;42.262;12.210;2022-10-16T07:49:15;16.30;99.90
74869;DHT22;63419;42.262;12.210;2022-10-16T07:51:42;16.40;99.90
74869;DHT22;63419;42.262;12.210;2022-10-16T07:54:12;16.50;99.90
74869;DHT22;63419;42.262;12.210;2022-10-16T07:56:41;16.60;99.90
74869;DHT22;63419;42.262;12.210;2022-10-16T07:59:11;16.70;99.90
74869;DHT22;63419;42.262;12.210;2022-10-16T08:01:39;16.80;99.90
74869;DHT22;63419;42.262;12.210;2022-10-16T08:04:08;17.00;99.90
74869;DHT22;63419;42.262;12.210;2022-10-16T08:06:39;17.00;99.90
74869;DHT22;63419;42.262;12.210;2022-10-16T08:09:11;17.10;99.90
74869;DHT22;63419;42.262;12.210;2022-10-16T08:11:39;17.20;99.90
74869;DHT22;63419;42.262;12.210;2022-10-16T08:14:07;17.20;99.90
74869;DHT22;63419;42.262;12.210;2022-10-16T08:16:35;17.50;99.90
74869;DHT22;63419;42.262;12.210;2022-10-16T08:19:05;17.50;99.90
74869;DHT22;63419;42.262;12.210;2022-10-16T08:21:32;17.70;99.90
74869;DHT22;63419;42.262;12.210;2022-10-16T08:24:00;17.80;99.90
74869;DHT22;63419;42.262;12.210;2022-10-16T08:26:30;18.10;99.90
74869;DHT22;63419;42.262;12.210;2022-10-16T08:29:00;18.10;99.90
74869;DHT22;63419;42.262;12.210;2022-10-16T08:31:30;18.30;99.90
74869;DHT22;63419;42.262;12.210;2022-10-16T08:33:58;18.60;99.90
74869;DHT22;63419;42.262;12.210;2022-10-16T08:36:31;18.90;99.90
74869;DHT22;63419;42.262;12.210;2022-10-16T08:38:59;19.30;99.90
74869;DHT22;63419;42.262;12.210;2022-10-16T08:41:39;19.40;99.90
74869;DHT22;63419;42.262;12.210;2022-10-16T08:47:25;19.90;99.90
74869;DHT22;63419;42.262;12.210;2022-10-16T08:50:10;20.30;99.90
74869;DHT22;63419;42.262;12.210;2022-10-16T08:52:43;20.60;99.90
74869;DHT22;63419;42.262;12.210;2022-10-16T08:58:23;20.10;99.90
74869;DHT22;63419;42.262;12.210;2022-10-16T09:01:01;20.30;99.90
74869;DHT22;63419;42.262;12.210;2022-10-16T09:20:25;19.60;99.90
74869;DHT22;63419;42.262;12.210;2022-10-16T09:23:19;19.60;99.90
74869;DHT22;63419;42.262;12.210;2022-10-16T09:25:59;20.20;99.90
74869;DHT22;63419;42.262;12.210;2022-10-16T09:28:31;20.20;99.90
74869;DHT22;63419;42.262;12.210;2022-10-16T09:30:58;20.80;99.90
74869;DHT22;63419;42.262;12.210;2022-10-16T09:33:33;21.00;99.90
74869;DHT22;63419;42.262;12.210;2022-10-16T09:36:11;21.90;99.90
74869;DHT22;63419;42.262;12.210;2022-10-16T09:38:43;22.90;99.90
74869;DHT22;63419;42.262;12.210;2022-10-16T09:41:21;22.20;99.90
74869;DHT22;63419;42.262;12.210;2022-10-16T09:44:00;20.60;99.90
74869;DHT22;63419;42.262;12.210;2022-10-16T09:46:33;20.50;99.90
74869;DHT22;63419;42.262;12.210;2022-10-16T09:52:13;20.30;99.90
74869;DHT22;63419;42.262;12.210;2022-10-16T09:54:56;20.40;99.90
74869;DHT22;63419;42.262;12.210;2022-10-16T09:57:26;20.40;99.90
74869;DHT22;63419;42.262;12.210;2022-10-16T10:00:04;20.80;99.90
74869;DHT22;63419;42.262;12.210;2022-10-16T10:02:37;21.30;99.90
74869;DHT22;63419;42.262;12.210;2022-10-16T10:05:26;21.20;99.90
74869;DHT22;63419;42.262;12.210;2022-10-16T10:08:06;21.30;99.90
74869;DHT22;63419;42.262;12.210;2022-10-16T10:10:49;21.00;99.90
74869;DHT22;63419;42.262;12.210;2022-10-16T10:13:23;21.30;99.90
74869;DHT22;63419;42.262;12.210;2022-10-16T10:15:56;21.90;99.90
74869;DHT22;63419;42.262;12.210;2022-10-16T10:18:25;22.30;99.90
74869;DHT22;63419;42.262;12.210;2022-10-16T10:21:02;22.60;99.90
74869;DHT22;63419;42.262;12.210;2022-10-16T10:23:32;22.90;99.90
74869;DHT22;63419;42.262;12.210;2022-10-16T10:26:18;23.20;99.90
74869;DHT22;63419;42.262;12.210;2022-10-16T10:29:13;23.40;99.90
74869;DHT22;63419;42.262;12.210;2022-10-16T10:32:07;23.50;99.90
74869;DHT22;63419;42.262;12.210;2022-10-16T10:40:39;23.30;99.90
74869;DHT22;63419;42.262;12.210;2022-10-16T10:55:14;23.50;99.90
74869;DHT22;63419;42.262;12.210;2022-10-16T11:01:13;23.30;99.90
74869;DHT22;63419;42.262;12.210;2022-10-16T11:06:39;23.70;99.90
74869;DHT22;63419;42.262;12.210;2022-10-16T11:09:21;23.90;99.90
74869;DHT22;63419;42.262;12.210;2022-10-16T11:17:52;24.70;99.90
74869;DHT22;63419;42.262;12.210;2022-10-16T11:20:40;25.40;99.90
74869;DHT22;63419;42.262;12.210;2022-10-16T11:23:38;26.00;99.90
74869;DHT22;63419;42.262;12.210;2022-10-16T11:26:17;26.40;99.90
74869;DHT22;63419;42.262;12.210;2022-10-16T11:28:54;26.00;99.90
74869;DHT22;63419;42.262;12.210;2022-10-16T11:31:40;26.30;99.90
74869;DHT22;63419;42.262;12.210;2022-10-16T11:37:18;26.00;99.90
74869;DHT22;63419;42.262;12.210;2022-10-16T11:39:53;26.60;99.90
74869;DHT22;63419;42.262;12.210;2022-10-16T11:42:32;26.30;99.90
74869;DHT22;63419;42.262;12.210;2022-10-16T11:51:43;24.90;99.90
74869;DHT22;63419;42.262;12.210;2022-10-16T11:54:39;25.70;99.90
74869;DHT22;63419;42.262;12.210;2022-10-16T11:57:45;24.30;99.90
74869;DHT22;63419;42.262;12.210;2022-10-16T12:00:28;23.90;99.90
74869;DHT22;63419;42.262;12.210;2022-10-16T12:06:06;25.00;99.90
74869;DHT22;63419;42.262;12.210;2022-10-16T12:08:45;23.70;99.90
74869;DHT22;63419;42.262;12.210;2022-10-16T12:16:56;25.90;99.90
74869;DHT22;63419;42.262;12.210;2022-10-16T12:19:30;26.40;99.90
74869;DHT22;63419;42.262;12.210;2022-10-16T12:22:17;27.00;99.90
74869;DHT22;63419;42.262;12.210;2022-10-16T12:25:33;27.40;99.90
74869;DHT22;63419;42.262;12.210;2022-10-16T12:28:25;27.90;99.90
74869;DHT22;63419;42.262;12.210;2022-10-16T12:33:53;27.60;99.90
74869;DHT22;63419;42.262;12.210;2022-10-16T12:36:36;27.00;99.90
74869;DHT22;63419;42.262;12.210;2022-10-16T12:39:21;23.50;99.90
74869;DHT22;63419;42.262;12.210;2022-10-16T12:42:22;22.50;99.90
74869;DHT22;63419;42.262;12.210;2022-10-16T12:44:56;22.30;99.90
74869;DHT22;63419;42.262;12.210;2022-10-16T12:49:59;23.40;99.90
74869;DHT22;63419;42.262;12.210;2022-10-16T12:52:35;23.70;99.90
74869;DHT22;63419;42.262;12.210;2022-10-16T12:55:06;23.40;99.90
74869;DHT22;63419;42.262;12.210;2022-10-16T13:09:30;22.00;99.90
74869;DHT22;63419;42.262;12.210;2022-10-16T13:12:38;21.30;99.90
74869;DHT22;63419;42.262;12.210;2022-10-16T13:18:18;21.70;99.90
74869;DHT22;63419;42.262;12.210;2022-10-16T13:29:13;21.20;99.90
74869;DHT22;63419;42.262;12.210;2022-10-16T13:31:43;20.90;99.90
74869;DHT22;63419;42.262;12.210;2022-10-16T13:34:17;20.70;99.90
74869;DHT22;63419;42.262;12.210;2022-10-16T13:36:50;21.10;99.90
74869;DHT22;63419;42.262;12.210;2022-10-16T13:39:32;21.60;99.90
74869;DHT22;63419;42.262;12.210;2022-10-16T13:42:06;21.80;99.90
74869;DHT22;63419;42.262;12.210;2022-10-16T13:44:46;21.60;99.90
74869;DHT22;63419;42.262;12.210;2022-10-16T13:47:28;21.80;99.90
74869;DHT22;63419;42.262;12.210;2022-10-16T13:50:01;21.60;99.90
74869;DHT22;63419;42.262;12.210;2022-10-16T13:52:32;21.40;99.90
74869;DHT22;63419;42.262;12.210;2022-10-16T13:55:00;21.50;99.90
74869;DHT22;63419;42.262;12.210;2022-10-16T13:57:28;21.70;99.90
74869;DHT22;63419;42.262;12.210;2022-10-16T13:59:56;21.80;99.90
74869;DHT22;63419;42.262;12.210;2022-10-16T14:02:34;21.60;99.90
74869;DHT22;63419;42.262;12.210;2022-10-16T14:05:09;21.30;99.90
74869;DHT22;63419;42.262;12.210;2022-10-16T14:07:42;21.20;99.90
74869;DHT22;63419;42.262;12.210;2022-10-16T14:13:05;20.50;99.90
74869;DHT22;63419;42.262;12.210;2022-10-16T14:15:35;20.50;99.90
74869;DHT22;63419;42.262;12.210;2022-10-16T14:18:05;20.70;99.90
74869;DHT22;63419;42.262;12.210;2022-10-16T14:20:33;21.20;99.90
74869;DHT22;63419;42.262;12.210;2022-10-16T14:23:04;21.70;99.90
74869;DHT22;63419;42.262;12.210;2022-10-16T14:25:48;20.90;99.90
74869;DHT22;63419;42.262;12.210;2022-10-16T14:28:22;21.00;99.90
74869;DHT22;63419;42.262;12.210;2022-10-16T14:30:59;21.90;99.90
74869;DHT22;63419;42.262;12.210;2022-10-16T14:38:42;23.40;99.90
74869;DHT22;63419;42.262;12.210;2022-10-16T14:41:15;22.70;99.90
74869;DHT22;63419;42.262;12.210;2022-10-16T14:43:51;22.10;99.90
74869;DHT22;63419;42.262;12.210;2022-10-16T14:46:31;21.80;99.90
74869;DHT22;63419;42.262;12.210;2022-10-16T14:51:41;21.60;99.90
74869;DHT22;63419;42.262;12.210;2022-10-16T14:54:16;21.60;99.90
74869;DHT22;63419;42.262;12.210;2022-10-16T14:56:55;21.40;99.90
74869;DHT22;63419;42.262;12.210;2022-10-16T15:02:27;21.30;99.90
74869;DHT22;63419;42.262;12.210;2022-10-16T15:05:13;21.20;99.90
74869;DHT22;63419;42.262;12.210;2022-10-16T15:07:58;20.80;99.90
74869;DHT22;63419;42.262;12.210;2022-10-16T15:10:27;21.50;99.90
74869;DHT22;63419;42.262;12.210;2022-10-16T15:12:56;21.60;99.90
74869;DHT22;63419;42.262;12.210;2022-10-16T15:18:11;21.70;99.90
74869;DHT22;63419;42.262;12.210;2022-10-16T15:20:39;21.00;99.90
74869;DHT22;63419;42.262;12.210;2022-10-16T15:23:16;20.40;99.90
74869;DHT22;63419;42.262;12.210;2022-10-16T15:25:47;20.10;99.90
74869;DHT22;63419;42.262;12.210;2022-10-16T15:28:19;19.60;99.90
74869;DHT22;63419;42.262;12.210;2022-10-16T15:30:54;19.40;99.90
74869;DHT22;63419;42.262;12.210;2022-10-16T15:33:27;19.40;99.90
74869;DHT22;63419;42.262;12.210;2022-10-16T15:36:09;19.30;99.90
74869;DHT22;63419;42.262;12.210;2022-10-16T15:38:36;19.50;99.90
74869;DHT22;63419;42.262;12.210;2022-10-16T15:41:03;19.90;99.90
74869;DHT22;63419;42.262;12.210;2022-10-16T15:43:31;20.00;99.90
74869;DHT22;63419;42.262;12.210;2022-10-16T15:46:06;20.10;99.90
74869;DHT22;63419;42.262;12.210;2022-10-16T15:48:37;20.10;99.90
74869;DHT22;63419;42.262;12.210;2022-10-16T15:51:06;19.90;99.90
74869;DHT22;63419;42.262;12.210;2022-10-16T15:53:35;20.30;99.90
74869;DHT22;63419;42.262;12.210;2022-10-16T15:56:07;20.00;99.90
74869;DHT22;63419;42.262;12.210;2022-10-16T15:58:35;19.80;99.90
74869;DHT22;63419;42.262;12.210;2022-10-16T16:01:04;19.20;99.90
74869;DHT22;63419;42.262;12.210;2022-10-16T16:03:33;19.10;99.90
74869;DHT22;63419;42.262;12.210;2022-10-16T16:06:04;19.10;99.90
74869;DHT22;63419;42.262;12.210;2022-10-16T16:08:37;19.20;99.90
74869;DHT22;63419;42.262;12.210;2022-10-16T16:11:08;19.20;99.90
74869;DHT22;63419;42.262;12.210;2022-10-16T16:13:38;19.00;99.90
74869;DHT22;63419;42.262;12.210;2022-10-16T16:16:12;18.90;99.90
74869;DHT22;63419;42.262;12.210;2022-10-16T16:18:43;18.90;99.90
74869;DHT22;63419;42.262;12.210;2022-10-16T16:21:13;19.00;99.90
74869;DHT22;63419;42.262;12.210;2022-10-16T16:23:42;18.80;99.90
74869;DHT22;63419;42.262;12.210;2022-10-16T16:26:20;18.70;99.90
74869;DHT22;63419;42.262;12.210;2022-10-16T16:28:54;18.50;99.90
74869;DHT22;63419;42.262;12.210;2022-10-16T16:31:30;18.40;99.90
74869;DHT22;63419;42.262;12.210;2022-10-16T16:33:58;18.30;99.90
74869;DHT22;63419;42.262;12.210;2022-10-16T16:36:26;18.20;99.90
74869;DHT22;63419;42.262;12.210;2022-10-16T16:38:53;18.10;99.90
74869;DHT22;63419;42.262;12.210;2022-10-16T16:41:23;18.10;99.90
74869;DHT22;63419;42.262;12.210;2022-10-16T16:43:53;17.90;99.90
74869;DHT22;63419;42.262;12.210;2022-10-16T16:46:26;17.70;99.90
74869;DHT22;63419;42.262;12.210;2022-10-16T16:48:57;17.60;99.90
74869;DHT22;63419;42.262;12.210;2022-10-16T16:51:25;17.40;99.90
74869;DHT22;63419;42.262;12.210;2022-10-16T16:53:53;17.40;99.90
74869;DHT22;63419;42.262;12.210;2022-10-16T16:56:22;17.40;99.90
74869;DHT22;63419;42.262;12.210;2022-10-16T16:58:52;17.40;99.90
74869;DHT22;63419;42.262;12.210;2022-10-16T17:01:23;17.40;99.90
74869;DHT22;63419;42.262;12.210;2022-10-16T17:03:56;17.30;99.90
74869;DHT22;63419;42.262;12.210;2022-10-16T17:06:29;17.30;99.90
74869;DHT22;63419;42.262;12.210;2022-10-16T17:08:56;17.30;99.90
74869;DHT22;63419;42.262;12.210;2022-10-16T17:11:27;17.30;99.90
74869;DHT22;63419;42.262;12.210;2022-10-16T17:13:58;17.30;99.90
74869;DHT22;63419;42.262;12.210;2022-10-16T17:16:35;17.30;99.90
74869;DHT22;63419;42.262;12.210;2022-10-16T17:19:10;17.30;99.90
74869;DHT22;63419;42.262;12.210;2022-10-16T17:21:40;17.30;99.90
74869;DHT22;63419;42.262;12.210;2022-10-16T17:24:08;17.20;99.90
74869;DHT22;63419;42.262;12.210;2022-10-16T17:26:40;17.20;99.90
74869;DHT22;63419;42.262;12.210;2022-10-16T17:29:22;17.20;99.90
74869;DHT22;63419;42.262;12.210;2022-10-16T17:31:52;17.10;99.90
74869;DHT22;63419;42.262;12.210;2022-10-16T17:34:22;17.10;99.90
74869;DHT22;63419;42.262;12.210;2022-10-16T17:36:50;17.10;99.90
74869;DHT22;63419;42.262;12.210;2022-10-16T17:39:20;17.00;99.90
74869;DHT22;63419;42.262;12.210;2022-10-16T17:41:49;16.90;99.90
74869;DHT22;63419;42.262;12.210;2022-10-16T17:44:17;16.90;99.90
74869;DHT22;63419;42.262;12.210;2022-10-16T17:46:52;16.90;99.90
74869;DHT22;63419;42.262;12.210;2022-10-16T17:49:20;16.80;99.90
74869;DHT22;63419;42.262;12.210;2022-10-16T17:52:00;16.80;99.90
74869;DHT22;63419;42.262;12.210;2022-10-16T17:54:28;16.80;99.90
74869;DHT22;63419;42.262;12.210;2022-10-16T17:56:56;16.80;99.90
74869;DHT22;63419;42.262;12.210;2022-10-16T17:59:24;16.80;99.90
74869;DHT22;63419;42.262;12.210;2022-10-16T18:01:51;16.70;99.90
74869;DHT22;63419;42.262;12.210;2022-10-16T18:04:21;16.70;99.90
74869;DHT22;63419;42.262;12.210;2022-10-16T18:06:49;16.70;99.90
74869;DHT22;63419;42.262;12.210;2022-10-16T18:09:19;16.70;99.90